sensor_id;sensor_type;location;lat;lon;timestamp;P1;durP1;ratioP1;P2;durP2;ratioP2
62037;SDS011;47991;42.974;12.082;2023-03-12T00:00:03;12.20;;;4.60;;
62037;SDS011;47991;42.974;12.082;2023-03-12T00:02:54;12.50;;;4.30;;
62037;SDS011;47991;42.974;12.082;2023-03-12T00:05:21;12.30;;;4.50;;
62037;SDS011;47991;42.974;12.082;2023-03-12T00:07:51;13.10;;;4.70;;
62037;SDS011;47991;42.974;12.082;2023-03-12T00:10:18;12.10;;;4.50;;
62037;SDS011;47991;42.974;12.082;2023-03-12T00:12:46;12.60;;;4.60;;
62037;SDS011;47991;42.974;12.082;2023-03-12T00:15:12;12.70;;;4.40;;
62037;SDS011;47991;42.974;12.082;2023-03-12T00:17:39;11.80;;;4.30;;
62037;SDS011;47991;42.974;12.082;2023-03-12T00:20:06;12.30;;;4.80;;
62037;SDS011;47991;42.974;12.082;2023-03-12T00:22:33;12.10;;;4.50;;
62037;SDS011;47991;42.974;12.082;2023-03-12T00:25:00;13.30;;;4.50;;
62037;SDS011;47991;42.974;12.082;2023-03-12T00:27:28;12.30;;;5.00;;
62037;SDS011;47991;42.974;12.082;2023-03-12T00:29:55;13.30;;;5.10;;
62037;SDS011;47991;42.974;12.082;2023-03-12T00:32:21;14.00;;;5.40;;
62037;SDS011;47991;42.974;12.082;2023-03-12T00:34:52;13.10;;;4.80;;
62037;SDS011;47991;42.974;12.082;2023-03-12T00:37:21;11.20;;;4.50;;
62037;SDS011;47991;42.974;12.082;2023-03-12T00:39:48;12.80;;;4.20;;
62037;SDS011;47991;42.974;12.082;2023-03-12T00:42:14;12.70;;;5.20;;
62037;SDS011;47991;42.974;12.082;2023-03-12T00:44:42;13.00;;;5.10;;
62037;SDS011;47991;42.974;12.082;2023-03-12T00:47:10;15.60;;;5.50;;
62037;SDS011;47991;42.974;12.082;2023-03-12T00:49:43;13.20;;;6.00;;
62037;SDS011;47991;42.974;12.082;2023-03-12T00:52:10;13.00;;;4.80;;
62037;SDS011;47991;42.974;12.082;2023-03-12T00:54:37;11.80;;;4.60;;
62037;SDS011;47991;42.974;12.082;2023-03-12T00:57:04;16.40;;;6.00;;
62037;SDS011;47991;42.974;12.082;2023-03-12T00:59:32;17.50;;;5.30;;
62037;SDS011;47991;42.974;12.082;2023-03-12T01:02:00;9.60;;;4.00;;
62037;SDS011;47991;42.974;12.082;2023-03-12T01:04:26;14.50;;;4.50;;
62037;SDS011;47991;42.974;12.082;2023-03-12T01:06:54;9.30;;;3.40;;
62037;SDS011;47991;42.974;12.082;2023-03-12T01:09:21;15.70;;;4.70;;
62037;SDS011;47991;42.974;12.082;2023-03-12T01:11:48;11.50;;;4.20;;
62037;SDS011;47991;42.974;12.082;2023-03-12T01:14:14;14.90;;;4.00;;
62037;SDS011;47991;42.974;12.082;2023-03-12T01:16:41;11.30;;;3.60;;
62037;SDS011;47991;42.974;12.082;2023-03-12T01:19:08;14.70;;;3.90;;
62037;SDS011;47991;42.974;12.082;2023-03-12T01:21:36;10.40;;;3.70;;
62037;SDS011;47991;42.974;12.082;2023-03-12T01:24:03;11.70;;;4.10;;
62037;SDS011;47991;42.974;12.082;2023-03-12T01:26:30;11.80;;;4.40;;
62037;SDS011;47991;42.974;12.082;2023-03-12T01:28:56;12.00;;;5.50;;
62037;SDS011;47991;42.974;12.082;2023-03-12T01:31:23;14.00;;;5.30;;
62037;SDS011;47991;42.974;12.082;2023-03-12T01:33:51;14.30;;;6.10;;
62037;SDS011;47991;42.974;12.082;2023-03-12T01:36:22;11.00;;;4.90;;
62037;SDS011;47991;42.974;12.082;2023-03-12T01:38:52;13.60;;;5.60;;
62037;SDS011;47991;42.974;12.082;2023-03-12T01:41:20;13.00;;;5.60;;
62037;SDS011;47991;42.974;12.082;2023-03-12T01:43:48;15.00;;;6.80;;
62037;SDS011;47991;42.974;12.082;2023-03-12T01:49:08;15.40;;;6.60;;
62037;SDS011;47991;42.974;12.082;2023-03-12T01:51:45;12.80;;;5.70;;
62037;SDS011;47991;42.974;12.082;2023-03-12T01:54:18;19.80;;;5.80;;
62037;SDS011;47991;42.974;12.082;2023-03-12T01:56:52;12.30;;;5.80;;
62037;SDS011;47991;42.974;12.082;2023-03-12T01:59:44;12.30;;;5.80;;
62037;SDS011;47991;42.974;12.082;2023-03-12T02:02:17;10.90;;;5.10;;
62037;SDS011;47991;42.974;12.082;2023-03-12T02:04:50;11.40;;;4.60;;
62037;SDS011;47991;42.974;12.082;2023-03-12T02:07:25;11.80;;;4.30;;
62037;SDS011;47991;42.974;12.082;2023-03-12T02:09:52;12.60;;;5.60;;
62037;SDS011;47991;42.974;12.082;2023-03-12T02:12:18;15.30;;;7.40;;
62037;SDS011;47991;42.974;12.082;2023-03-12T02:14:45;12.50;;;6.00;;
62037;SDS011;47991;42.974;12.082;2023-03-12T02:17:12;11.70;;;5.70;;
62037;SDS011;47991;42.974;12.082;2023-03-12T02:22:25;12.70;;;6.80;;
62037;SDS011;47991;42.974;12.082;2023-03-12T02:27:22;14.70;;;8.90;;
62037;SDS011;47991;42.974;12.082;2023-03-12T02:29:50;14.70;;;7.90;;
62037;SDS011;47991;42.974;12.082;2023-03-12T02:32:22;15.10;;;8.90;;
62037;SDS011;47991;42.974;12.082;2023-03-12T02:34:51;15.60;;;8.90;;
62037;SDS011;47991;42.974;12.082;2023-03-12T02:37:18;13.60;;;7.80;;
62037;SDS011;47991;42.974;12.082;2023-03-12T02:39:49;14.70;;;7.50;;
62037;SDS011;47991;42.974;12.082;2023-03-12T02:42:21;13.60;;;7.40;;
62037;SDS011;47991;42.974;12.082;2023-03-12T02:44:49;14.20;;;7.90;;
62037;SDS011;47991;42.974;12.082;2023-03-12T02:47:17;17.20;;;8.80;;
62037;SDS011;47991;42.974;12.082;2023-03-12T02:49:44;17.70;;;9.60;;
62037;SDS011;47991;42.974;12.082;2023-03-12T02:52:12;14.50;;;8.20;;
62037;SDS011;47991;42.974;12.082;2023-03-12T02:54:39;15.50;;;8.00;;
62037;SDS011;47991;42.974;12.082;2023-03-12T02:57:07;17.10;;;9.00;;
62037;SDS011;47991;42.974;12.082;2023-03-12T02:59:34;13.30;;;5.20;;
62037;SDS011;47991;42.974;12.082;2023-03-12T03:02:03;10.50;;;5.80;;
62037;SDS011;47991;42.974;12.082;2023-03-12T03:04:30;11.80;;;6.00;;
62037;SDS011;47991;42.974;12.082;2023-03-12T03:06:57;12.90;;;5.10;;
62037;SDS011;47991;42.974;12.082;2023-03-12T03:09:24;15.40;;;6.50;;
62037;SDS011;47991;42.974;12.082;2023-03-12T03:11:51;15.00;;;8.00;;
62037;SDS011;47991;42.974;12.082;2023-03-12T03:14:18;14.20;;;7.40;;
62037;SDS011;47991;42.974;12.082;2023-03-12T03:16:48;15.70;;;8.50;;
62037;SDS011;47991;42.974;12.082;2023-03-12T03:19:16;13.70;;;8.70;;
62037;SDS011;47991;42.974;12.082;2023-03-12T03:21:42;13.50;;;8.20;;
62037;SDS011;47991;42.974;12.082;2023-03-12T03:24:09;13.40;;;7.60;;
62037;SDS011;47991;42.974;12.082;2023-03-12T03:26:36;15.00;;;8.10;;
62037;SDS011;47991;42.974;12.082;2023-03-12T03:29:03;14.40;;;5.70;;
62037;SDS011;47991;42.974;12.082;2023-03-12T03:31:30;13.30;;;6.70;;
62037;SDS011;47991;42.974;12.082;2023-03-12T03:33:57;15.40;;;7.50;;
62037;SDS011;47991;42.974;12.082;2023-03-12T03:36:24;15.00;;;7.30;;
62037;SDS011;47991;42.974;12.082;2023-03-12T03:39:04;15.90;;;6.80;;
62037;SDS011;47991;42.974;12.082;2023-03-12T03:41:31;14.80;;;7.20;;
62037;SDS011;47991;42.974;12.082;2023-03-12T03:43:59;15.70;;;7.50;;
62037;SDS011;47991;42.974;12.082;2023-03-12T03:46:27;14.00;;;7.40;;
62037;SDS011;47991;42.974;12.082;2023-03-12T03:48:59;15.80;;;7.80;;
62037;SDS011;47991;42.974;12.082;2023-03-12T03:51:26;12.60;;;6.10;;
62037;SDS011;47991;42.974;12.082;2023-03-12T03:53:57;12.00;;;5.40;;
62037;SDS011;47991;42.974;12.082;2023-03-12T03:56:26;16.00;;;6.30;;
62037;SDS011;47991;42.974;12.082;2023-03-12T03:58:53;14.70;;;6.20;;
62037;SDS011;47991;42.974;12.082;2023-03-12T04:01:20;12.90;;;6.00;;
62037;SDS011;47991;42.974;12.082;2023-03-12T04:03:47;16.20;;;7.40;;
62037;SDS011;47991;42.974;12.082;2023-03-12T04:06:14;13.80;;;7.10;;
62037;SDS011;47991;42.974;12.082;2023-03-12T04:08:41;15.90;;;8.20;;
62037;SDS011;47991;42.974;12.082;2023-03-12T04:11:12;14.80;;;6.10;;
62037;SDS011;47991;42.974;12.082;2023-03-12T04:13:41;13.60;;;5.70;;
62037;SDS011;47991;42.974;12.082;2023-03-12T04:16:09;15.40;;;5.70;;
62037;SDS011;47991;42.974;12.082;2023-03-12T04:18:36;12.70;;;6.30;;
62037;SDS011;47991;42.974;12.082;2023-03-12T04:21:05;15.80;;;6.90;;
62037;SDS011;47991;42.974;12.082;2023-03-12T04:23:34;14.00;;;5.90;;
62037;SDS011;47991;42.974;12.082;2023-03-12T04:26:02;17.70;;;6.30;;
62037;SDS011;47991;42.974;12.082;2023-03-12T04:28:29;14.00;;;5.70;;
62037;SDS011;47991;42.974;12.082;2023-03-12T04:30:57;14.50;;;6.00;;
62037;SDS011;47991;42.974;12.082;2023-03-12T04:33:27;18.20;;;6.40;;
62037;SDS011;47991;42.974;12.082;2023-03-12T04:35:56;10.00;;;5.80;;
62037;SDS011;47991;42.974;12.082;2023-03-12T04:38:23;10.40;;;5.60;;
62037;SDS011;47991;42.974;12.082;2023-03-12T04:43:30;14.60;;;6.10;;
62037;SDS011;47991;42.974;12.082;2023-03-12T04:45:58;15.40;;;6.80;;
62037;SDS011;47991;42.974;12.082;2023-03-12T04:48:26;14.40;;;6.50;;
62037;SDS011;47991;42.974;12.082;2023-03-12T04:50:53;12.40;;;6.00;;
62037;SDS011;47991;42.974;12.082;2023-03-12T04:53:22;24.80;;;9.30;;
62037;SDS011;47991;42.974;12.082;2023-03-12T04:55:50;27.30;;;8.70;;
62037;SDS011;47991;42.974;12.082;2023-03-12T04:58:17;75.20;;;11.50;;
62037;SDS011;47991;42.974;12.082;2023-03-12T05:00:46;23.10;;;8.50;;
62037;SDS011;47991;42.974;12.082;2023-03-12T05:03:15;39.70;;;9.90;;
62037;SDS011;47991;42.974;12.082;2023-03-12T05:05:44;19.10;;;6.00;;
62037;SDS011;47991;42.974;12.082;2023-03-12T05:08:12;22.90;;;8.00;;
62037;SDS011;47991;42.974;12.082;2023-03-12T05:10:40;16.80;;;6.60;;
62037;SDS011;47991;42.974;12.082;2023-03-12T05:13:12;25.40;;;8.20;;
62037;SDS011;47991;42.974;12.082;2023-03-12T05:15:43;23.00;;;8.10;;
62037;SDS011;47991;42.974;12.082;2023-03-12T05:18:11;17.90;;;6.70;;
62037;SDS011;47991;42.974;12.082;2023-03-12T05:20:38;40.00;;;8.60;;
62037;SDS011;47991;42.974;12.082;2023-03-12T05:23:06;33.40;;;8.60;;
62037;SDS011;47991;42.974;12.082;2023-03-12T05:25:33;36.90;;;9.00;;
62037;SDS011;47991;42.974;12.082;2023-03-12T05:28:03;51.00;;;9.10;;
62037;SDS011;47991;42.974;12.082;2023-03-12T05:30:30;43.40;;;9.90;;
62037;SDS011;47991;42.974;12.082;2023-03-12T05:32:58;28.70;;;8.30;;
62037;SDS011;47991;42.974;12.082;2023-03-12T05:35:25;63.30;;;9.00;;
62037;SDS011;47991;42.974;12.082;2023-03-12T05:37:52;40.30;;;7.10;;
62037;SDS011;47991;42.974;12.082;2023-03-12T05:40:19;22.70;;;7.10;;
62037;SDS011;47991;42.974;12.082;2023-03-12T05:42:45;98.20;;;11.40;;
62037;SDS011;47991;42.974;12.082;2023-03-12T05:45:12;43.80;;;9.40;;
62037;SDS011;47991;42.974;12.082;2023-03-12T05:47:41;50.10;;;9.70;;
62037;SDS011;47991;42.974;12.082;2023-03-12T05:50:08;59.20;;;10.30;;
62037;SDS011;47991;42.974;12.082;2023-03-12T05:52:37;91.10;;;10.80;;
62037;SDS011;47991;42.974;12.082;2023-03-12T05:55:04;73.00;;;10.50;;
62037;SDS011;47991;42.974;12.082;2023-03-12T05:57:31;44.40;;;8.50;;
62037;SDS011;47991;42.974;12.082;2023-03-12T05:59:59;83.70;;;13.40;;
62037;SDS011;47991;42.974;12.082;2023-03-12T06:02:25;39.00;;;10.60;;
62037;SDS011;47991;42.974;12.082;2023-03-12T06:04:53;55.90;;;10.00;;
62037;SDS011;47991;42.974;12.082;2023-03-12T06:07:20;63.90;;;12.00;;
62037;SDS011;47991;42.974;12.082;2023-03-12T06:09:48;50.40;;;12.50;;
62037;SDS011;47991;42.974;12.082;2023-03-12T06:12:15;44.10;;;11.90;;
62037;SDS011;47991;42.974;12.082;2023-03-12T06:14:42;81.30;;;14.00;;
62037;SDS011;47991;42.974;12.082;2023-03-12T06:17:09;60.70;;;9.70;;
62037;SDS011;47991;42.974;12.082;2023-03-12T06:19:36;31.50;;;9.10;;
62037;SDS011;47991;42.974;12.082;2023-03-12T06:22:03;77.90;;;12.00;;
62037;SDS011;47991;42.974;12.082;2023-03-12T06:24:30;61.00;;;9.80;;
62037;SDS011;47991;42.974;12.082;2023-03-12T06:27:01;49.40;;;8.60;;
62037;SDS011;47991;42.974;12.082;2023-03-12T06:29:27;29.20;;;7.80;;
62037;SDS011;47991;42.974;12.082;2023-03-12T06:31:54;20.20;;;7.30;;
62037;SDS011;47991;42.974;12.082;2023-03-12T06:34:21;29.80;;;6.40;;
62037;SDS011;47991;42.974;12.082;2023-03-12T06:36:48;13.90;;;5.80;;
62037;SDS011;47991;42.974;12.082;2023-03-12T06:39:15;27.10;;;7.20;;
62037;SDS011;47991;42.974;12.082;2023-03-12T06:41:43;16.20;;;6.10;;
62037;SDS011;47991;42.974;12.082;2023-03-12T06:44:10;13.70;;;7.00;;
62037;SDS011;47991;42.974;12.082;2023-03-12T06:46:37;11.90;;;6.40;;
62037;SDS011;47991;42.974;12.082;2023-03-12T06:49:04;16.90;;;6.70;;
62037;SDS011;47991;42.974;12.082;2023-03-12T06:51:31;11.10;;;6.80;;
62037;SDS011;47991;42.974;12.082;2023-03-12T06:53:58;11.60;;;5.60;;
62037;SDS011;47991;42.974;12.082;2023-03-12T06:56:28;9.70;;;5.80;;
62037;SDS011;47991;42.974;12.082;2023-03-12T06:58:58;11.00;;;5.80;;
62037;SDS011;47991;42.974;12.082;2023-03-12T07:01:25;10.30;;;5.20;;
62037;SDS011;47991;42.974;12.082;2023-03-12T07:03:53;10.50;;;6.00;;
62037;SDS011;47991;42.974;12.082;2023-03-12T07:06:20;11.60;;;5.90;;
62037;SDS011;47991;42.974;12.082;2023-03-12T07:08:48;11.10;;;5.90;;
62037;SDS011;47991;42.974;12.082;2023-03-12T07:11:16;11.20;;;6.40;;
62037;SDS011;47991;42.974;12.082;2023-03-12T07:13:43;10.70;;;6.10;;
62037;SDS011;47991;42.974;12.082;2023-03-12T07:16:11;12.40;;;7.10;;
62037;SDS011;47991;42.974;12.082;2023-03-12T07:18:40;10.80;;;6.30;;
62037;SDS011;47991;42.974;12.082;2023-03-12T07:21:08;11.70;;;7.50;;
62037;SDS011;47991;42.974;12.082;2023-03-12T07:23:36;11.00;;;6.90;;
62037;SDS011;47991;42.974;12.082;2023-03-12T07:26:04;11.90;;;7.00;;
62037;SDS011;47991;42.974;12.082;2023-03-12T07:28:31;14.10;;;7.90;;
62037;SDS011;47991;42.974;12.082;2023-03-12T07:30:59;13.60;;;8.60;;
62037;SDS011;47991;42.974;12.082;2023-03-12T07:33:27;14.20;;;7.50;;
62037;SDS011;47991;42.974;12.082;2023-03-12T07:35:54;12.90;;;7.90;;
62037;SDS011;47991;42.974;12.082;2023-03-12T07:38:21;14.50;;;9.20;;
62037;SDS011;47991;42.974;12.082;2023-03-12T07:40:55;13.60;;;7.90;;
62037;SDS011;47991;42.974;12.082;2023-03-12T07:43:23;15.90;;;7.70;;
62037;SDS011;47991;42.974;12.082;2023-03-12T07:45:53;13.90;;;8.00;;
62037;SDS011;47991;42.974;12.082;2023-03-12T07:48:20;12.70;;;6.60;;
62037;SDS011;47991;42.974;12.082;2023-03-12T07:50:48;14.10;;;6.60;;
62037;SDS011;47991;42.974;12.082;2023-03-12T07:53:15;13.00;;;7.60;;
62037;SDS011;47991;42.974;12.082;2023-03-12T07:55:42;15.90;;;7.50;;
62037;SDS011;47991;42.974;12.082;2023-03-12T07:58:11;14.20;;;6.80;;
62037;SDS011;47991;42.974;12.082;2023-03-12T08:00:38;14.90;;;6.50;;
62037;SDS011;47991;42.974;12.082;2023-03-12T08:03:05;11.80;;;5.70;;
62037;SDS011;47991;42.974;12.082;2023-03-12T08:05:32;16.10;;;6.20;;
62037;SDS011;47991;42.974;12.082;2023-03-12T08:07:59;13.20;;;5.40;;
62037;SDS011;47991;42.974;12.082;2023-03-12T08:10:26;11.20;;;5.20;;
62037;SDS011;47991;42.974;12.082;2023-03-12T08:12:53;12.40;;;5.20;;
62037;SDS011;47991;42.974;12.082;2023-03-12T08:15:20;14.80;;;6.80;;
62037;SDS011;47991;42.974;12.082;2023-03-12T08:17:47;10.10;;;5.20;;
62037;SDS011;47991;42.974;12.082;2023-03-12T08:20:14;12.80;;;5.40;;
62037;SDS011;47991;42.974;12.082;2023-03-12T08:22:42;10.90;;;4.60;;
62037;SDS011;47991;42.974;12.082;2023-03-12T08:25:09;10.30;;;4.90;;
62037;SDS011;47991;42.974;12.082;2023-03-12T08:27:36;10.30;;;4.60;;
62037;SDS011;47991;42.974;12.082;2023-03-12T08:30:03;10.80;;;4.50;;
62037;SDS011;47991;42.974;12.082;2023-03-12T08:32:31;13.20;;;4.50;;
62037;SDS011;47991;42.974;12.082;2023-03-12T08:34:58;11.00;;;4.20;;
62037;SDS011;47991;42.974;12.082;2023-03-12T08:37:25;12.40;;;3.70;;
62037;SDS011;47991;42.974;12.082;2023-03-12T08:39:53;9.90;;;4.60;;
62037;SDS011;47991;42.974;12.082;2023-03-12T08:42:20;13.20;;;5.80;;
62037;SDS011;47991;42.974;12.082;2023-03-12T08:44:47;10.20;;;4.70;;
62037;SDS011;47991;42.974;12.082;2023-03-12T08:47:15;11.10;;;4.40;;
62037;SDS011;47991;42.974;12.082;2023-03-12T08:49:42;12.40;;;4.70;;
62037;SDS011;47991;42.974;12.082;2023-03-12T08:52:09;8.30;;;3.40;;
62037;SDS011;47991;42.974;12.082;2023-03-12T08:54:35;7.90;;;3.40;;
62037;SDS011;47991;42.974;12.082;2023-03-12T08:57:02;8.40;;;3.20;;
62037;SDS011;47991;42.974;12.082;2023-03-12T08:59:33;10.70;;;3.60;;
62037;SDS011;47991;42.974;12.082;2023-03-12T09:02:00;9.40;;;3.80;;
62037;SDS011;47991;42.974;12.082;2023-03-12T09:04:27;10.80;;;3.70;;
62037;SDS011;47991;42.974;12.082;2023-03-12T09:06:54;9.70;;;3.40;;
62037;SDS011;47991;42.974;12.082;2023-03-12T09:09:21;10.00;;;3.80;;
62037;SDS011;47991;42.974;12.082;2023-03-12T09:11:48;10.20;;;4.20;;
62037;SDS011;47991;42.974;12.082;2023-03-12T09:14:15;12.10;;;3.50;;
62037;SDS011;47991;42.974;12.082;2023-03-12T09:16:42;9.70;;;4.30;;
62037;SDS011;47991;42.974;12.082;2023-03-12T09:19:09;9.00;;;3.90;;
62037;SDS011;47991;42.974;12.082;2023-03-12T09:21:36;9.00;;;3.70;;
62037;SDS011;47991;42.974;12.082;2023-03-12T09:24:03;9.20;;;3.90;;
62037;SDS011;47991;42.974;12.082;2023-03-12T09:26:30;11.10;;;4.20;;
62037;SDS011;47991;42.974;12.082;2023-03-12T09:28:57;9.40;;;4.20;;
62037;SDS011;47991;42.974;12.082;2023-03-12T09:31:25;10.10;;;4.90;;
62037;SDS011;47991;42.974;12.082;2023-03-12T09:33:52;9.00;;;3.90;;
62037;SDS011;47991;42.974;12.082;2023-03-12T09:36:19;8.80;;;3.70;;
62037;SDS011;47991;42.974;12.082;2023-03-12T09:38:47;8.80;;;3.70;;
62037;SDS011;47991;42.974;12.082;2023-03-12T09:41:16;8.40;;;3.50;;
62037;SDS011;47991;42.974;12.082;2023-03-12T09:44:00;12.00;;;3.60;;
62037;SDS011;47991;42.974;12.082;2023-03-12T09:46:53;8.70;;;3.80;;
62037;SDS011;47991;42.974;12.082;2023-03-12T09:49:31;9.30;;;3.90;;
62037;SDS011;47991;42.974;12.082;2023-03-12T09:52:17;7.90;;;3.30;;
62037;SDS011;47991;42.974;12.082;2023-03-12T09:54:58;11.10;;;4.00;;
62037;SDS011;47991;42.974;12.082;2023-03-12T09:57:26;10.30;;;3.70;;
62037;SDS011;47991;42.974;12.082;2023-03-12T09:59:55;7.50;;;3.60;;
62037;SDS011;47991;42.974;12.082;2023-03-12T10:05:17;8.30;;;3.10;;
62037;SDS011;47991;42.974;12.082;2023-03-12T10:07:49;9.50;;;3.90;;
62037;SDS011;47991;42.974;12.082;2023-03-12T10:18:31;8.30;;;3.00;;
62037;SDS011;47991;42.974;12.082;2023-03-12T10:27:16;7.00;;;3.10;;
62037;SDS011;47991;42.974;12.082;2023-03-12T10:29:45;13.80;;;3.70;;
62037;SDS011;47991;42.974;12.082;2023-03-12T10:32:17;7.80;;;3.20;;
62037;SDS011;47991;42.974;12.082;2023-03-12T10:35:18;6.60;;;3.10;;
62037;SDS011;47991;42.974;12.082;2023-03-12T10:37:54;10.90;;;3.00;;
62037;SDS011;47991;42.974;12.082;2023-03-12T10:40:25;7.30;;;3.10;;
62037;SDS011;47991;42.974;12.082;2023-03-12T10:42:54;12.50;;;5.60;;
62037;SDS011;47991;42.974;12.082;2023-03-12T10:45:35;21.10;;;10.30;;
62037;SDS011;47991;42.974;12.082;2023-03-12T10:48:23;10.20;;;3.90;;
62037;SDS011;47991;42.974;12.082;2023-03-12T10:51:07;17.90;;;8.00;;
62037;SDS011;47991;42.974;12.082;2023-03-12T10:53:40;7.70;;;3.20;;
62037;SDS011;47991;42.974;12.082;2023-03-12T10:56:14;9.20;;;3.20;;
62037;SDS011;47991;42.974;12.082;2023-03-12T10:58:44;9.40;;;3.70;;
62037;SDS011;47991;42.974;12.082;2023-03-12T11:01:29;8.10;;;3.90;;
62037;SDS011;47991;42.974;12.082;2023-03-12T11:04:07;8.90;;;3.50;;
62037;SDS011;47991;42.974;12.082;2023-03-12T11:06:41;8.30;;;3.20;;
62037;SDS011;47991;42.974;12.082;2023-03-12T11:11:35;8.60;;;3.40;;
62037;SDS011;47991;42.974;12.082;2023-03-12T11:14:16;5.80;;;2.20;;
62037;SDS011;47991;42.974;12.082;2023-03-12T11:16:45;8.40;;;3.40;;
62037;SDS011;47991;42.974;12.082;2023-03-12T11:19:13;7.20;;;3.50;;
62037;SDS011;47991;42.974;12.082;2023-03-12T11:21:59;7.80;;;3.20;;
62037;SDS011;47991;42.974;12.082;2023-03-12T11:24:28;9.90;;;4.10;;
62037;SDS011;47991;42.974;12.082;2023-03-12T11:26:58;8.20;;;3.80;;
62037;SDS011;47991;42.974;12.082;2023-03-12T11:29:35;8.60;;;3.70;;
62037;SDS011;47991;42.974;12.082;2023-03-12T11:32:51;10.50;;;3.50;;
62037;SDS011;47991;42.974;12.082;2023-03-12T11:35:12;8.60;;;3.70;;
62037;SDS011;47991;42.974;12.082;2023-03-12T11:40:47;8.90;;;3.50;;
62037;SDS011;47991;42.974;12.082;2023-03-12T11:46:08;7.70;;;3.30;;
62037;SDS011;47991;42.974;12.082;2023-03-12T11:51:59;8.90;;;3.90;;
62037;SDS011;47991;42.974;12.082;2023-03-12T12:00:05;8.20;;;3.60;;
62037;SDS011;47991;42.974;12.082;2023-03-12T12:05:25;10.00;;;3.60;;
62037;SDS011;47991;42.974;12.082;2023-03-12T12:19:01;6.30;;;2.90;;
62037;SDS011;47991;42.974;12.082;2023-03-12T12:24:46;9.80;;;3.20;;
62037;SDS011;47991;42.974;12.082;2023-03-12T12:27:35;6.90;;;2.70;;
62037;SDS011;47991;42.974;12.082;2023-03-12T12:36:33;8.50;;;2.80;;
62037;SDS011;47991;42.974;12.082;2023-03-12T12:39:09;6.90;;;2.60;;
62037;SDS011;47991;42.974;12.082;2023-03-12T12:41:50;7.40;;;2.60;;
62037;SDS011;47991;42.974;12.082;2023-03-12T12:44:21;9.80;;;3.10;;
62037;SDS011;47991;42.974;12.082;2023-03-12T12:46:52;8.70;;;2.90;;
62037;SDS011;47991;42.974;12.082;2023-03-12T12:49:40;8.40;;;2.60;;
62037;SDS011;47991;42.974;12.082;2023-03-12T12:52:16;8.00;;;2.70;;
62037;SDS011;47991;42.974;12.082;2023-03-12T12:57:37;6.70;;;2.40;;
62037;SDS011;47991;42.974;12.082;2023-03-12T13:02:50;6.40;;;2.40;;
62037;SDS011;47991;42.974;12.082;2023-03-12T13:07:51;9.80;;;3.00;;
62037;SDS011;47991;42.974;12.082;2023-03-12T13:15:47;7.70;;;2.50;;
62037;SDS011;47991;42.974;12.082;2023-03-12T13:23:42;8.10;;;2.60;;
62037;SDS011;47991;42.974;12.082;2023-03-12T13:29:21;7.30;;;2.60;;
62037;SDS011;47991;42.974;12.082;2023-03-12T13:31:48;9.70;;;3.20;;
62037;SDS011;47991;42.974;12.082;2023-03-12T13:36:43;7.80;;;2.70;;
62037;SDS011;47991;42.974;12.082;2023-03-12T13:43:46;7.90;;;2.40;;
62037;SDS011;47991;42.974;12.082;2023-03-12T13:48:45;4.80;;;2.30;;
62037;SDS011;47991;42.974;12.082;2023-03-12T13:51:17;7.50;;;2.60;;
62037;SDS011;47991;42.974;12.082;2023-03-12T13:53:47;7.00;;;2.70;;
62037;SDS011;47991;42.974;12.082;2023-03-12T13:56:25;7.20;;;2.60;;
62037;SDS011;47991;42.974;12.082;2023-03-12T13:58:55;6.60;;;2.20;;
62037;SDS011;47991;42.974;12.082;2023-03-12T14:01:35;8.00;;;2.60;;
62037;SDS011;47991;42.974;12.082;2023-03-12T14:04:07;6.20;;;2.20;;
62037;SDS011;47991;42.974;12.082;2023-03-12T14:12:24;6.50;;;2.70;;
62037;SDS011;47991;42.974;12.082;2023-03-12T14:14:59;6.80;;;2.20;;
62037;SDS011;47991;42.974;12.082;2023-03-12T14:17:44;5.90;;;2.20;;
62037;SDS011;47991;42.974;12.082;2023-03-12T14:20:13;6.20;;;2.30;;
62037;SDS011;47991;42.974;12.082;2023-03-12T14:22:45;6.50;;;2.40;;
62037;SDS011;47991;42.974;12.082;2023-03-12T14:28:18;8.00;;;2.30;;
62037;SDS011;47991;42.974;12.082;2023-03-12T14:30:59;6.30;;;2.60;;
62037;SDS011;47991;42.974;12.082;2023-03-12T14:36:13;6.20;;;2.10;;
62037;SDS011;47991;42.974;12.082;2023-03-12T14:38:44;7.00;;;2.20;;
62037;SDS011;47991;42.974;12.082;2023-03-12T14:41:28;8.10;;;2.30;;
62037;SDS011;47991;42.974;12.082;2023-03-12T14:44:37;7.10;;;2.30;;
62037;SDS011;47991;42.974;12.082;2023-03-12T14:47:05;9.60;;;2.40;;
62037;SDS011;47991;42.974;12.082;2023-03-12T14:49:39;6.60;;;2.20;;
62037;SDS011;47991;42.974;12.082;2023-03-12T14:52:10;5.50;;;2.10;;
62037;SDS011;47991;42.974;12.082;2023-03-12T14:54:38;6.30;;;2.60;;
62037;SDS011;47991;42.974;12.082;2023-03-12T14:57:04;6.50;;;2.10;;
62037;SDS011;47991;42.974;12.082;2023-03-12T14:59:37;5.60;;;2.10;;
62037;SDS011;47991;42.974;12.082;2023-03-12T15:02:11;7.30;;;2.00;;
62037;SDS011;47991;42.974;12.082;2023-03-12T15:04:39;7.40;;;2.30;;
62037;SDS011;47991;42.974;12.082;2023-03-12T15:07:08;6.90;;;2.40;;
62037;SDS011;47991;42.974;12.082;2023-03-12T15:09:40;6.80;;;2.10;;
62037;SDS011;47991;42.974;12.082;2023-03-12T15:15:15;6.00;;;2.30;;
62037;SDS011;47991;42.974;12.082;2023-03-12T15:17:54;8.80;;;2.20;;
62037;SDS011;47991;42.974;12.082;2023-03-12T15:20:21;4.30;;;2.00;;
62037;SDS011;47991;42.974;12.082;2023-03-12T15:22:51;5.70;;;1.90;;
62037;SDS011;47991;42.974;12.082;2023-03-12T15:31:02;5.90;;;2.10;;
62037;SDS011;47991;42.974;12.082;2023-03-12T15:33:58;5.40;;;2.10;;
62037;SDS011;47991;42.974;12.082;2023-03-12T15:36:29;7.50;;;1.70;;
62037;SDS011;47991;42.974;12.082;2023-03-12T15:39:20;8.50;;;1.90;;
62037;SDS011;47991;42.974;12.082;2023-03-12T15:41:51;6.60;;;2.10;;
62037;SDS011;47991;42.974;12.082;2023-03-12T15:47:00;4.50;;;1.70;;
62037;SDS011;47991;42.974;12.082;2023-03-12T15:49:31;5.40;;;2.00;;
62037;SDS011;47991;42.974;12.082;2023-03-12T15:54:29;6.10;;;2.00;;
62037;SDS011;47991;42.974;12.082;2023-03-12T16:05:34;6.30;;;2.30;;
62037;SDS011;47991;42.974;12.082;2023-03-12T16:08:21;5.40;;;2.20;;
62037;SDS011;47991;42.974;12.082;2023-03-12T16:11:01;5.50;;;2.20;;
62037;SDS011;47991;42.974;12.082;2023-03-12T16:13:29;7.70;;;1.90;;
62037;SDS011;47991;42.974;12.082;2023-03-12T16:15:56;5.30;;;2.10;;
62037;SDS011;47991;42.974;12.082;2023-03-12T16:18:24;5.10;;;2.00;;
62037;SDS011;47991;42.974;12.082;2023-03-12T16:20:50;7.70;;;2.10;;
62037;SDS011;47991;42.974;12.082;2023-03-12T16:23:17;5.50;;;1.90;;
62037;SDS011;47991;42.974;12.082;2023-03-12T16:25:44;6.30;;;2.00;;
62037;SDS011;47991;42.974;12.082;2023-03-12T16:28:13;6.40;;;2.20;;
62037;SDS011;47991;42.974;12.082;2023-03-12T16:30:42;5.90;;;1.90;;
62037;SDS011;47991;42.974;12.082;2023-03-12T16:33:11;7.10;;;2.20;;
62037;SDS011;47991;42.974;12.082;2023-03-12T16:35:39;8.00;;;2.10;;
62037;SDS011;47991;42.974;12.082;2023-03-12T16:38:06;8.80;;;2.30;;
62037;SDS011;47991;42.974;12.082;2023-03-12T16:40:33;5.80;;;2.40;;
62037;SDS011;47991;42.974;12.082;2023-03-12T16:43:02;5.40;;;2.10;;
62037;SDS011;47991;42.974;12.082;2023-03-12T16:45:34;5.80;;;2.20;;
62037;SDS011;47991;42.974;12.082;2023-03-12T16:48:03;8.40;;;2.60;;
62037;SDS011;47991;42.974;12.082;2023-03-12T16:50:31;5.10;;;2.20;;
62037;SDS011;47991;42.974;12.082;2023-03-12T16:52:57;7.00;;;2.10;;
62037;SDS011;47991;42.974;12.082;2023-03-12T16:55:27;7.40;;;2.50;;